aviador You're here:

KAGC Decoded Metar

PITTSBURGH/ALLEG in PA, USA
Report Time2018-07-22 15:53:00
UTC Time2018-07-22 16:05:20
Flight Rules mvfr MVFR
Wind180° at 06 kt
W.Decomp.*RWY 13: 3.1 kt HW 5.1 kt RCW
RWY 10: 0.1 kt HW 6.0 kt RCW
W.Rank180° ranks 1
Current wind is below 180° avg. (7.1)
Visibility9999 m
Phenomena:N/A
Clouds:Broken 020 Hf
Expected CloudBase > 2,000 ft AGL from Temp-Dew spread
Ceiling2,000 ft
Temp22°C (ISA +10)
Dew Point17°C (73% RH)
QNH1008 hPa
Density Alt2,815 ft
Elevation1,276 ft
Report Wrong Elevation
Raw Report
KAGC 221553Z 18006KT 10SM BKN020 22/17 A2978 RMK AO2 SLP081
T02220172=

Extra information for KAGC:More info

Metar Taf Metar & Taf Last 4 Metars F.Rules Stats Wind Profile Meteogram Temp Stats Airport Information Weather charts Add Link Nearby VenuesMetar ALERT Operation Metar Decoded Social comments

AIRNAV info for KAGC